Lake City, Pennsylvania
Current Conditions -  °F | °C
As of 11:12 PM on Tuesday 27 Jan 2015 (Local Time) from KERI Reporting Station
Scattered Clouds Scattered Clouds  
Wind Chill: 11°   Ceiling: Unl
Heat Index: 18°   Visibility: 10mi
Dew Point: 10°   Wind: 5mph
Humidity: 71%   Direction: 350°N
Pressure: 30.14"   Gusts: NA
Location:  42.01°N, 80.35°W
Report Text: KERI 280412Z 35004KT 10SM SCT021 M08/M12 A3014 RMK AO2 T10781122
Loading
Personal Weather Stations






























Interactive Weather Map New forecast layout! Learn more

10-Day Weather Forecast

Advertisements
Track Severe Weather on mobile